Time;durP1;ratioP1;P1;durP2;ratioP2;P2;SDS_P1;SDS_P2;PMS_P1;PMS_P2;Temp;Humidity;BMP_temperature;BMP_pressure;BME280_temperature;BME280_humidity;BME280_pressure;Samples;Min_cycle;Max_cycle;Signal;HPM_P1;HPM_P2
2021/12/26 00:01:37;;;;;;;;;25.75;20.50;;;;;10.10;85.42;99694.53;5058540;28;45513;-75
2021/12/26 00:04:05;;;;;;;;;20.25;20.25;;;;;10.32;84.95;99728.59;5058638;28;45199;-75
2021/12/26 00:06:31;;;;;;;;;25.50;22.50;;;;;10.36;85.55;99733.84;5059011;28;45476;-75
2021/12/26 00:08:59;;;;;;;;;28.00;21.50;;;;;10.34;85.47;99724.22;5058784;28;46237;-75
2021/12/26 00:11:24;;;;;;;;;21.25;20.75;;;;;10.38;85.33;99731.19;5040668;28;45411;-75
2021/12/26 00:13:52;;;;;;;;;23.25;21.75;;;;;10.37;85.42;99730.31;5058800;28;45234;-75
2021/12/26 00:16:18;;;;;;;;;23.25;22.25;;;;;10.25;85.50;99707.59;5058796;28;45206;-74
2021/12/26 00:18:45;;;;;;;;;33.00;27.00;;;;;10.28;85.16;99714.59;5058598;28;45254;-75
2021/12/26 00:21:12;;;;;;;;;23.75;20.50;;;;;10.37;85.31;99732.97;5058378;28;45351;-74
2021/12/26 00:23:38;;;;;;;;;22.75;22.75;;;;;10.36;85.29;99727.72;5058510;28;45259;-75
2021/12/26 00:26:04;;;;;;;;;25.00;22.00;;;;;10.38;84.65;99724.16;5058692;28;45294;-74
2021/12/26 00:28:29;;;;;;;;;28.25;26.00;;;;;10.34;85.20;99709.31;5058229;28;45346;-74
2021/12/26 00:30:56;;;;;;;;;29.25;27.25;;;;;10.27;85.61;99702.31;5058134;28;45481;-75
2021/12/26 00:33:22;;;;;;;;;23.50;21.75;;;;;10.28;86.20;99719.88;5058262;28;45288;-74
2021/12/26 00:35:47;;;;;;;;;36.25;33.75;;;;;10.30;86.20;99718.09;5057554;28;45211;-74
2021/12/26 00:38:14;;;;;;;;;33.75;27.50;;;;;10.32;85.61;99711.03;5058375;28;46079;-74
2021/12/26 00:40:40;;;;;;;;;31.00;27.50;;;;;10.32;85.42;99702.28;5058104;28;45334;-74
2021/12/26 00:43:05;;;;;;;;;26.50;25.00;;;;;10.37;84.96;99700.50;5058211;28;45397;-76
2021/12/26 00:45:32;;;;;;;;;29.25;25.50;;;;;10.31;85.65;99690.00;5058378;28;45536;-74
2021/12/26 00:47:57;;;;;;;;;36.00;33.50;;;;;10.17;85.84;99659.38;5057391;28;45486;-75
2021/12/26 00:50:26;;;;;;;;;32.00;32.00;;;;;10.34;86.08;99701.41;5058025;28;45330;-73
2021/12/26 00:52:53;;;;;;;;;37.75;36.00;;;;;10.36;86.62;99696.13;5058140;28;45322;-74
2021/12/26 00:55:19;;;;;;;;;31.75;26.00;;;;;10.13;86.25;99656.78;5058045;28;45329;-74
2021/12/26 00:57:46;;;;;;;;;30.50;28.50;;;;;10.27;85.71;99692.66;5057705;28;46686;-74
2021/12/26 01:00:16;;;;;;;;;32.25;31.00;;;;;10.31;85.85;99708.44;5057783;28;45341;-74
2021/12/26 01:02:41;;;;;;;;;32.00;28.75;;;;;10.34;85.58;99701.41;5057723;28;45552;-74
2021/12/26 01:05:08;;;;;;;;;29.50;28.25;;;;;10.40;85.91;99709.22;5058346;28;45442;-74
2021/12/26 01:07:46;;;;;;;;;28.25;26.50;;;;;10.34;85.66;99696.13;5057543;28;45274;-74
2021/12/26 01:10:12;;;;;;;;;33.75;29.50;;;;;10.41;84.73;99704.84;5039498;28;45782;-74
2021/12/26 01:12:39;;;;;;;;;37.75;33.00;;;;;10.48;84.66;99712.66;5057653;28;45288;-74
2021/12/26 01:15:09;;;;;;;;;36.50;31.75;;;;;10.48;84.70;99712.66;5039200;28;45537;-75
2021/12/26 01:17:35;;;;;;;;;32.50;30.00;;;;;10.37;85.73;99706.63;5057285;28;46222;-75
2021/12/26 01:20:06;;;;;;;;;40.50;33.75;;;;;10.30;85.42;99711.94;5056934;28;45367;-75
2021/12/26 01:22:31;;;;;;;;;32.50;29.50;;;;;10.12;85.35;99679.59;5039189;28;45291;-75
2021/12/26 01:24:56;;;;;;;;;34.25;28.25;;;;;10.19;85.87;99693.59;5057441;28;45328;-74
2021/12/26 01:27:23;;;;;;;;;36.75;32.00;;;;;10.03;86.61;99684.91;5056957;28;46550;-74
2021/12/26 01:29:49;;;;;;;;;36.50;33.00;;;;;10.19;86.26;99707.63;5056965;28;45472;-73
2021/12/26 01:32:15;;;;;;;;;23.50;21.50;;;;;10.27;86.45;99715.50;5057624;28;45224;-74
2021/12/26 01:34:40;;;;;;;;;23.00;23.00;;;;;10.05;85.12;99675.28;5057363;28;45359;-74
2021/12/26 01:37:06;;;;;;;;;28.75;26.00;;;;;10.26;86.12;99704.09;5056767;28;45564;-74
2021/12/26 01:39:31;;;;;;;;;26.50;25.75;;;;;10.20;85.43;99687.44;5057191;28;45386;-74
2021/12/26 01:42:02;;;;;;;;;32.25;28.50;;;;;10.30;86.16;99704.94;5056838;28;45341;-74
2021/12/26 01:44:28;;;;;;;;;30.50;27.75;;;;;10.19;85.57;99689.19;5056929;28;45476;-74
2021/12/26 01:46:54;;;;;;;;;31.00;27.00;;;;;10.26;85.38;99709.34;5062434;28;46207;-73
2021/12/26 01:49:23;;;;;;;;;36.25;33.25;;;;;10.23;85.53;99698.81;5045609;28;45828;-74
2021/12/26 01:51:53;;;;;;;;;31.25;27.25;;;;;10.32;85.57;99695.25;5063630;28;45331;-73
2021/12/26 01:54:29;;;;;;;;;25.00;22.00;;;;;10.33;85.21;99709.28;5063711;28;45560;-74
2021/12/26 01:56:56;;;;;;;;;26.75;23.25;;;;;10.32;85.96;99700.50;5063321;28;46568;-74
2021/12/26 01:59:21;;;;;;;;;26.25;21.25;;;;;10.33;85.54;99701.38;5063168;28;45473;-74
2021/12/26 02:01:47;;;;;;;;;28.25;23.75;;;;;10.29;85.32;99695.28;5063740;28;45287;-74
2021/12/26 02:04:13;;;;;;;;;27.50;27.00;;;;;10.27;85.56;99707.59;5063817;28;45303;-72
2021/12/26 02:06:39;;;;;;;;;21.00;19.50;;;;;10.19;86.26;99693.59;5063421;28;46688;-74
2021/12/26 02:09:04;;;;;;;;;33.75;33.25;;;;;10.20;86.13;99688.31;5063484;28;45470;-74
2021/12/26 02:11:30;;;;;;;;;33.50;31.25;;;;;10.29;85.29;99690.03;5063362;28;45324;-74
2021/12/26 02:13:55;;;;;;;;;32.75;31.75;;;;;10.19;85.67;99689.19;5063363;28;45301;-74
2021/12/26 02:16:22;;;;;;;;;28.50;24.50;;;;;10.04;85.65;99677.91;5063618;28;45501;-74
2021/12/26 02:18:48;;;;;;;;;25.50;23.00;;;;;10.12;86.44;99705.03;5063424;28;45324;-74
2021/12/26 02:28:41;;;;;;;;;53.75;42.25;;;;;10.16;86.01;99698.88;5063078;28;45280;-75
2021/12/26 02:31:07;;;;;;;;;42.25;37.50;;;;;10.23;86.16;99703.22;5063432;28;45386;-75
2021/12/26 02:33:33;;;;;;;;;40.75;36.00;;;;;10.15;86.40;99698.00;5063500;28;45525;-75
2021/12/26 02:35:59;;;;;;;;;44.75;34.25;;;;;10.14;85.75;99705.88;5044888;28;46310;-74
2021/12/26 02:38:24;;;;;;;;;39.75;32.00;;;;;10.08;86.23;99703.31;5063323;28;45363;-75
2021/12/26 02:40:52;;;;;;;;;35.00;33.75;;;;;10.10;86.11;99696.28;5045316;28;45307;-75
2021/12/26 02:43:20;;;;;;;;;32.00;28.25;;;;;10.02;86.14;99688.44;5063317;28;45287;-74
2021/12/26 02:45:47;;;;;;;;;26.25;24.75;;;;;10.00;86.65;99704.25;5062987;28;47672;-74
2021/12/26 02:48:12;;;;;;;;;31.75;28.75;;;;;9.90;86.49;99680.66;5062849;28;45370;-74
2021/12/26 02:50:40;;;;;;;;;32.00;28.75;;;;;9.99;86.29;99677.94;5063426;28;45329;-75
2021/12/26 02:53:08;;;;;;;;;33.75;29.50;;;;;10.13;85.96;99693.63;5045259;28;45606;-74
2021/12/26 02:55:34;;;;;;;;;37.75;33.75;;;;;10.07;86.17;99676.13;5061869;28;48556;-75
2021/12/26 02:58:03;;;;;;;;;26.50;25.50;;;;;10.15;86.37;99687.47;5059801;28;45329;-75
2021/12/26 03:00:32;;;;;;;;;27.00;25.25;;;;;10.14;85.91;99683.06;5060064;28;45318;-75
2021/12/26 03:03:00;;;;;;;;;26.25;25.75;;;;;10.21;85.38;99691.81;5060041;28;45306;-75
2021/12/26 03:05:28;;;;;;;;;27.00;25.25;;;;;10.03;86.08;99684.91;5059434;28;45583;-74
2021/12/26 03:07:53;;;;;;;;;27.00;25.75;;;;;10.06;86.24;99677.03;5059720;28;45428;-75
2021/12/26 03:10:22;;;;;;;;;38.25;28.00;;;;;10.14;85.73;99682.19;5059831;28;45308;-74
2021/12/26 03:12:53;;;;;;;;;33.50;28.50;;;;;10.15;86.47;99692.75;5059702;28;45355;-74
2021/12/26 03:15:19;;;;;;;;;25.75;24.00;;;;;10.14;86.46;99682.19;5059692;28;46433;-75
2021/12/26 03:17:45;;;;;;;;;30.50;27.00;;;;;10.14;86.02;99680.44;5059673;28;45333;-76
2021/12/26 03:20:14;;;;;;;;;26.50;24.00;;;;;10.18;86.07;99681.31;5059735;28;45247;-75
2021/12/26 03:22:39;;;;;;;;;33.25;29.00;;;;;10.13;85.86;99680.47;5059915;28;45293;-75
2021/12/26 03:25:10;;;;;;;;;30.50;26.50;;;;;10.19;86.42;99693.59;5059359;28;45464;-75
2021/12/26 03:27:35;;;;;;;;;25.25;21.00;;;;;10.20;85.61;99693.56;5059220;28;45375;-75
2021/12/26 03:30:01;;;;;;;;;26.25;25.50;;;;;10.20;85.58;99682.16;5059300;28;45358;-75
2021/12/26 03:32:26;;;;;;;;;28.25;28.25;;;;;10.20;86.01;99682.16;5059610;28;45427;-74
2021/12/26 03:34:52;;;;;;;;;28.25;28.25;;;;;10.09;85.63;99662.97;5058878;28;45562;-74
2021/12/26 03:37:17;;;;;;;;;26.25;22.75;;;;;10.16;85.98;99683.09;5059162;28;45251;-74
2021/12/26 03:39:44;;;;;;;;;26.25;23.50;;;;;10.20;86.44;99688.31;5059305;28;45279;-74
2021/12/26 03:42:10;;;;;;;;;25.75;24.75;;;;;10.24;85.97;99697.09;5059095;28;45204;-74
2021/12/26 03:44:36;;;;;;;;;31.75;28.00;;;;;10.20;86.54;99682.16;5059278;28;45502;-74
2021/12/26 03:47:02;;;;;;;;;30.00;27.25;;;;;10.22;85.80;99676.03;5058994;28;45403;-74
2021/12/26 03:49:27;;;;;;;;;29.00;27.00;;;;;10.13;86.16;99668.19;5059526;28;45296;-74
2021/12/26 03:51:53;;;;;;;;;28.50;28.50;;;;;10.24;85.78;99679.53;5059311;28;45333;-73
2021/12/26 03:54:18;;;;;;;;;34.75;30.50;;;;;10.28;85.49;99678.63;5059035;28;45346;-73
2021/12/26 03:56:44;;;;;;;;;35.00;29.75;;;;;10.24;86.10;99676.91;5058835;28;45243;-74
2021/12/26 03:59:10;;;;;;;;;38.25;32.25;;;;;10.18;85.24;99660.25;5058807;28;45514;-73
2021/12/26 04:01:35;;;;;;;;;35.25;32.50;;;;;10.26;85.58;99663.75;5059045;28;45790;-74
2021/12/26 04:04:01;;;;;;;;;23.50;23.50;;;;;10.19;85.65;99660.25;5058814;28;45403;-74
2021/12/26 04:06:27;;;;;;;;;30.50;28.50;;;;;10.24;85.47;99674.28;5058647;28;45287;-74
2021/12/26 04:08:54;;;;;;;;;29.00;24.50;;;;;10.19;86.15;99670.78;5058765;28;45232;-74
2021/12/26 04:11:19;;;;;;;;;30.75;28.75;;;;;10.15;86.59;99663.81;5058817;28;45707;-74
2021/12/26 04:13:45;;;;;;;;;30.00;29.50;;;;;10.09;85.79;99658.56;5058421;28;46301;-74
2021/12/26 04:16:10;;;;;;;;;24.75;22.00;;;;;10.22;86.03;99670.75;5058731;28;45430;-74
2021/12/26 04:18:36;;;;;;;;;33.50;28.75;;;;;10.13;85.80;99643.63;5058720;28;45305;-74
2021/12/26 04:21:02;;;;;;;;;31.25;27.50;;;;;10.07;85.57;99633.16;5058768;28;45279;-74
2021/12/26 04:23:27;;;;;;;;;38.75;33.00;;;;;10.21;85.85;99660.22;5058204;28;45303;-74
2021/12/26 04:25:53;;;;;;;;;33.50;30.25;;;;;10.09;85.74;99645.41;5058275;28;45464;-76
2021/12/26 04:28:19;;;;;;;;;39.50;35.75;;;;;10.13;85.29;99652.38;5058486;28;45610;-74
2021/12/26 04:30:45;;;;;;;;;33.00;31.00;;;;;10.07;86.18;99644.56;5058134;28;45398;-74
2021/12/26 04:33:11;;;;;;;;;34.50;33.00;;;;;10.11;86.03;99645.41;5057984;28;47306;-73
2021/12/26 04:35:36;;;;;;;;;31.25;29.25;;;;;10.18;86.15;99647.97;5058349;28;45203;-74
2021/12/26 04:38:02;;;;;;;;;28.75;25.00;;;;;10.18;85.66;99655.88;5058340;28;45262;-73
2021/12/26 04:40:28;;;;;;;;;34.75;29.75;;;;;10.17;86.12;99648.88;5058403;28;45147;-74
2021/12/26 04:42:54;;;;;;;;;33.50;31.50;;;;;10.14;85.58;99648.88;5058279;28;46767;-74
2021/12/26 04:45:20;;;;;;;;;28.00;26.25;;;;;9.98;85.81;99628.84;5058128;28;45248;-74
2021/12/26 04:47:45;;;;;;;;;29.25;29.25;;;;;10.12;85.50;99649.78;5057859;28;45489;-74
2021/12/26 04:50:16;;;;;;;;;28.25;24.50;;;;;10.16;85.70;99662.03;5058572;28;45501;-74
2021/12/26 04:52:43;;;;;;;;;28.00;25.00;;;;;10.05;86.08;99629.66;5058100;28;46155;-75
2021/12/26 04:55:10;;;;;;;;;36.00;28.75;;;;;10.11;85.70;99648.91;5057899;28;45255;-74
2021/12/26 04:57:36;;;;;;;;;35.25;33.25;;;;;10.15;86.36;99655.03;5058113;28;45255;-74
2021/12/26 05:00:05;;;;;;;;;31.00;29.00;;;;;10.13;85.74;99643.63;5057904;28;45413;-74
2021/12/26 05:02:32;;;;;;;;;31.00;27.25;;;;;10.17;85.90;99650.63;5058129;28;45804;-74
2021/12/26 05:04:58;;;;;;;;;35.75;30.75;;;;;10.14;85.57;99629.56;5057634;28;45313;-74
2021/12/26 05:07:23;;;;;;;;;29.50;27.50;;;;;10.10;86.29;99641.91;5057780;28;45396;-74
2021/12/26 05:09:49;;;;;;;;;37.00;27.50;;;;;10.07;85.60;99625.28;5058004;28;45348;-75
2021/12/26 05:12:14;;;;;;;;;27.75;27.75;;;;;10.06;86.48;99634.06;5057734;28;45226;-74
2021/12/26 05:14:40;;;;;;;;;34.25;29.25;;;;;10.02;86.55;99648.97;5057621;28;45432;-74
2021/12/26 05:17:05;;;;;;;;;31.00;29.25;;;;;9.89;87.29;99644.72;5057893;28;45215;-74
2021/12/26 05:19:30;;;;;;;;;33.25;30.75;;;;;9.63;87.86;99611.56;5057899;28;45345;-74
2021/12/26 05:21:56;;;;;;;;;30.00;28.00;;;;;9.70;87.91;99610.66;5056888;28;45331;-74
2021/12/26 05:24:21;;;;;;;;;30.75;27.25;;;;;9.82;88.11;99629.84;5057543;28;45440;-74
2021/12/26 05:26:47;;;;;;;;;30.25;26.00;;;;;9.85;87.33;99614.91;5057473;28;45334;-74
2021/12/26 05:29:12;;;;;;;;;26.75;26.75;;;;;9.99;87.29;99634.09;5057580;28;45294;-75
2021/12/26 05:31:37;;;;;;;;;31.25;23.50;;;;;9.92;87.43;99623.63;5057326;28;47328;-75
2021/12/26 05:34:03;;;;;;;;;27.00;23.50;;;;;9.78;87.80;99629.00;5057600;28;45390;-74
2021/12/26 05:36:28;;;;;;;;;28.00;22.25;;;;;9.76;88.07;99624.63;5057494;28;45279;-75
2021/12/26 05:38:55;;;;;;;;;25.25;21.50;;;;;9.80;87.69;99621.09;5057440;28;45510;-75
2021/12/26 05:41:21;;;;;;;;;25.75;24.00;;;;;9.74;88.04;99607.97;5057217;28;45350;-74
2021/12/26 05:43:46;;;;;;;;;24.25;24.25;;;;;9.86;88.12;99619.28;5057400;28;45239;-74
2021/12/26 05:46:12;;;;;;;;;19.50;16.75;;;;;9.85;88.52;99609.63;5056993;28;45394;-74
2021/12/26 05:48:37;;;;;;;;;27.50;21.75;;;;;10.00;87.59;99619.19;5057210;28;45353;-75
2021/12/26 05:51:03;;;;;;;;;22.25;20.50;;;;;9.94;87.47;99622.72;5056885;28;46536;-74
2021/12/26 05:53:28;;;;;;;;;22.00;22.00;;;;;9.91;87.87;99614.88;5057422;28;45279;-74
2021/12/26 05:55:54;;;;;;;;;24.00;21.50;;;;;9.99;88.08;99628.84;5057289;28;45207;-75
2021/12/26 05:58:19;;;;;;;;;24.00;24.00;;;;;9.74;87.88;99582.56;5057156;28;45199;-74
2021/12/26 06:00:44;;;;;;;;;27.25;24.25;;;;;10.05;87.39;99629.66;5057027;28;47193;-75
2021/12/26 06:03:10;;;;;;;;;29.50;24.75;;;;;10.07;87.07;99634.03;5057327;28;45284;-75
2021/12/26 06:05:35;;;;;;;;;26.25;25.25;;;;;10.05;87.10;99619.13;5057263;28;45449;-74
2021/12/26 06:08:01;;;;;;;;;24.00;21.00;;;;;10.07;87.30;99628.78;5057486;28;45187;-74
2021/12/26 06:10:26;;;;;;;;;26.00;25.00;;;;;9.97;87.36;99622.72;5056904;28;45455;-74
2021/12/26 06:12:52;;;;;;;;;27.50;25.00;;;;;10.09;88.12;99626.13;5056883;28;45292;-74
2021/12/26 06:15:18;;;;;;;;;27.25;21.50;;;;;10.09;87.35;99624.38;5057116;28;45385;-74
2021/12/26 06:17:43;;;;;;;;;33.25;28.50;;;;;10.07;87.14;99618.25;5057042;28;45353;-74
2021/12/26 06:20:14;;;;;;;;;25.25;20.50;;;;;10.11;86.37;99613.81;5056778;28;47371;-75
2021/12/26 06:22:41;;;;;;;;;22.00;20.25;;;;;10.04;87.31;99602.47;5038550;28;45240;-75
2021/12/26 06:25:07;;;;;;;;;25.00;20.75;;;;;10.02;87.45;99608.63;5057096;28;45393;-75
2021/12/26 06:27:34;;;;;;;;;30.75;23.00;;;;;10.04;87.28;99620.00;5056845;28;45548;-75
2021/12/26 06:29:59;;;;;;;;;17.75;16.50;;;;;10.06;87.00;99627.03;5038522;28;47659;-75
2021/12/26 06:32:25;;;;;;;;;15.50;13.75;;;;;9.96;87.25;99604.31;5057020;28;45280;-76
2021/12/26 06:34:50;;;;;;;;;27.25;24.50;;;;;10.09;86.96;99620.88;5060610;28;45473;-76
2021/12/26 06:37:16;;;;;;;;;21.00;21.00;;;;;10.07;87.07;99626.16;5060194;28;45405;-75
2021/12/26 06:39:41;;;;;;;;;20.00;20.00;;;;;10.12;87.62;99626.97;5042127;28;46127;-74
2021/12/26 06:42:07;;;;;;;;;27.00;25.75;;;;;9.98;87.47;99599.91;5059779;28;45258;-75
2021/12/26 06:44:32;;;;;;;;;21.75;18.50;;;;;10.02;86.81;99606.88;5059858;28;45773;-75
2021/12/26 06:46:58;;;;;;;;;22.00;19.75;;;;;10.07;87.20;99604.22;5059840;28;45382;-75
2021/12/26 06:49:23;;;;;;;;;24.75;22.25;;;;;10.16;87.06;99615.53;5059768;28;46710;-74
2021/12/26 06:51:50;;;;;;;;;26.00;23.00;;;;;10.18;86.67;99624.28;5059556;28;45355;-74
2021/12/26 06:54:15;;;;;;;;;25.50;23.00;;;;;10.17;87.02;99619.03;5059833;28;45283;-74
2021/12/26 06:56:41;;;;;;;;;26.00;21.75;;;;;10.13;87.58;99615.53;5059810;28;46121;-74
2021/12/26 06:59:07;;;;;;;;;29.75;23.00;;;;;9.98;87.67;99585.00;5059648;28;45449;-74
2021/12/26 07:01:33;;;;;;;;;25.00;24.25;;;;;10.14;86.91;99608.53;5059716;28;45475;-74
2021/12/26 07:03:59;;;;;;;;;27.75;22.25;;;;;10.11;86.49;99604.16;5060061;28;45324;-74
2021/12/26 07:06:24;;;;;;;;;24.75;21.75;;;;;10.14;86.71;99608.53;5060095;28;45393;-74
2021/12/26 07:08:50;;;;;;;;;25.50;22.00;;;;;10.20;86.38;99619.00;5059601;28;45511;-74
2021/12/26 07:11:16;;;;;;;;;22.75;19.50;;;;;10.23;86.88;99614.59;5059241;28;45433;-74
2021/12/26 07:13:42;;;;;;;;;27.00;21.25;;;;;10.25;86.56;99619.88;5059564;28;45307;-74
2021/12/26 07:16:07;;;;;;;;;21.25;20.75;;;;;10.21;86.31;99610.22;5041671;28;45391;-74
2021/12/26 07:18:33;;;;;;;;;22.00;19.00;;;;;10.26;87.07;99619.00;5059037;28;46531;-75
2021/12/26 07:20:58;;;;;;;;;19.75;18.75;;;;;10.25;86.90;99609.34;5059115;28;45320;-75
2021/12/26 07:23:23;;;;;;;;;18.25;18.25;;;;;10.25;86.62;99607.59;5059474;28;45219;-75
2021/12/26 07:25:49;;;;;;;;;24.00;20.00;;;;;10.19;86.22;99602.34;5059680;28;45196;-74
2021/12/26 07:28:15;;;;;;;;;20.75;17.75;;;;;10.28;86.96;99614.56;5059435;28;46225;-74
2021/12/26 07:30:40;;;;;;;;;18.50;16.75;;;;;10.27;86.64;99607.56;5059393;28;45346;-75
2021/12/26 07:33:05;;;;;;;;;20.75;20.25;;;;;10.25;86.88;99610.22;5059095;28;45330;-75
2021/12/26 07:35:31;;;;;;;;;25.50;20.25;;;;;10.34;85.98;99630.31;5059357;28;45194;-75
2021/12/26 07:37:56;;;;;;;;;27.25;24.75;;;;;10.33;86.64;99622.41;5059103;28;46065;-75
2021/12/26 07:40:22;;;;;;;;;24.75;20.00;;;;;10.33;86.55;99630.31;5059064;28;45311;-75
2021/12/26 07:42:47;;;;;;;;;20.75;20.75;;;;;10.40;86.70;99639.91;5058653;28;45366;-74
2021/12/26 07:45:13;;;;;;;;;20.00;19.50;;;;;10.35;86.74;99628.56;5058936;28;45469;-74
2021/12/26 07:47:40;;;;;;;;;23.25;22.25;;;;;10.40;86.69;99637.28;5040589;28;45360;-74
2021/12/26 07:50:06;;;;;;;;;23.25;21.25;;;;;10.41;87.22;99631.13;5059090;28;45359;-74
2021/12/26 07:52:36;;;;;;;;;21.50;17.00;;;;;10.38;87.69;99618.00;5058956;28;45224;-75
2021/12/26 07:55:03;;;;;;;;;21.50;18.00;;;;;10.46;87.13;99632.81;5059028;28;45449;-74
2021/12/26 07:57:29;;;;;;;;;25.25;19.75;;;;;10.40;87.16;99621.47;5040395;28;45514;-74
2021/12/26 07:59:54;;;;;;;;;19.25;16.75;;;;;10.48;87.78;99636.31;5058604;28;45318;-75
2021/12/26 08:02:20;;;;;;;;;22.75;21.50;;;;;10.44;87.05;99628.47;5058887;28;45293;-74
2021/12/26 08:04:47;;;;;;;;;22.75;21.75;;;;;10.52;86.91;99640.69;5058982;28;45421;-74
2021/12/26 08:07:13;;;;;;;;;17.00;16.00;;;;;10.45;87.13;99638.13;5058996;28;46671;-75
2021/12/26 08:09:38;;;;;;;;;19.50;17.50;;;;;10.45;87.60;99630.22;5058633;28;45342;-75
2021/12/26 08:12:04;;;;;;;;;20.25;15.25;;;;;10.49;87.27;99635.41;5058829;28;45275;-74
2021/12/26 08:14:29;;;;;;;;;24.25;21.25;;;;;10.53;87.11;99637.16;5059108;28;45222;-74
2021/12/26 08:16:55;;;;;;;;;16.25;15.25;;;;;10.61;86.81;99650.25;5058746;28;46338;-74
2021/12/26 08:19:20;;;;;;;;;21.50;20.00;;;;;10.55;86.86;99638.00;5040200;28;45221;-74
2021/12/26 08:21:50;;;;;;;;;20.25;17.00;;;;;10.44;87.45;99617.94;5058477;28;45350;-74
2021/12/26 08:24:16;;;;;;;;;19.00;17.50;;;;;10.56;87.31;99639.75;5058613;28;45434;-74
2021/12/26 08:26:41;;;;;;;;;18.00;18.00;;;;;10.66;86.63;99651.06;5058509;28;45731;-74
2021/12/26 08:29:07;;;;;;;;;17.50;16.75;;;;;10.66;87.76;99653.69;5058349;28;45259;-74
2021/12/26 08:31:32;;;;;;;;;22.50;20.25;;;;;10.66;87.69;99648.41;5058292;28;45405;-74
2021/12/26 08:33:58;;;;;;;;;20.75;18.00;;;;;10.64;86.87;99642.31;5058225;28;45147;-75
2021/12/26 08:36:23;;;;;;;;;23.75;22.75;;;;;10.72;86.73;99661.53;5058093;28;45727;-74
2021/12/26 08:38:49;;;;;;;;;22.25;22.00;;;;;10.60;87.19;99645.84;5040133;28;45362;-74
2021/12/26 08:41:14;;;;;;;;;22.75;17.25;;;;;10.70;87.37;99660.69;5058228;28;45268;-74
2021/12/26 08:43:43;;;;;;;;;20.25;18.50;;;;;10.69;87.72;99656.28;5058510;28;45255;-74
2021/12/26 08:46:09;;;;;;;;;20.00;15.75;;;;;10.76;86.71;99665.88;5057957;28;46929;-73
2021/12/26 08:48:35;;;;;;;;;30.00;24.00;;;;;10.71;87.96;99651.91;5057886;28;45290;-75
2021/12/26 08:51:00;;;;;;;;;26.50;22.25;;;;;10.83;87.36;99677.22;5058079;28;45303;-74
2021/12/26 08:53:27;;;;;;;;;19.25;19.25;;;;;10.83;86.81;99675.47;5058181;28;45294;-74
2021/12/26 08:55:54;;;;;;;;;21.00;20.25;;;;;10.82;86.66;99670.22;5056997;28;46260;-74
2021/12/26 08:58:20;;;;;;;;;24.75;18.50;;;;;10.71;86.45;99649.25;5057653;28;45251;-74
2021/12/26 09:00:46;;;;;;;;;18.00;16.25;;;;;10.90;86.67;99678.03;5057774;28;45223;-74
2021/12/26 09:03:11;;;;;;;;;23.75;18.25;;;;;10.92;86.02;99681.53;5057776;28;45469;-74
2021/12/26 09:05:37;;;;;;;;;26.00;23.00;;;;;10.90;86.79;99678.91;5057403;28;45382;-75
2021/12/26 09:08:03;;;;;;;;;19.50;16.50;;;;;10.86;86.81;99664.00;5057764;28;45527;-75
2021/12/26 09:10:28;;;;;;;;;21.50;20.75;;;;;10.97;86.57;99684.97;5057999;28;45306;-74
2021/12/26 09:12:54;;;;;;;;;29.00;20.25;;;;;10.94;86.41;99671.84;5058266;28;45271;-74
2021/12/26 09:15:20;;;;;;;;;17.00;17.00;;;;;11.01;86.46;99689.34;5039301;28;45438;-75
2021/12/26 09:17:46;;;;;;;;;23.00;19.25;;;;;11.00;86.57;99687.59;5039367;28;45734;-75
2021/12/26 09:20:12;;;;;;;;;18.75;17.00;;;;;10.72;85.51;99643.09;5057307;28;45357;-74
2021/12/26 09:22:39;;;;;;;;;22.50;16.00;;;;;10.98;86.88;99684.06;5057853;28;45165;-74
2021/12/26 09:25:04;;;;;;;;;26.25;21.50;;;;;11.00;86.57;99685.81;5039075;28;48006;-75
2021/12/26 09:27:30;;;;;;;;;19.50;18.50;;;;;10.98;86.68;99678.81;5039395;28;45301;-75
2021/12/26 09:29:55;;;;;;;;;22.25;20.25;;;;;11.13;86.69;99707.63;5057306;28;45164;-74
2021/12/26 09:32:21;;;;;;;;;14.75;13.75;;;;;10.99;85.77;99676.19;5057621;28;45466;-75
2021/12/26 09:34:47;;;;;;;;;13.25;13.00;;;;;11.12;85.42;99692.72;5039061;28;46975;-74
2021/12/26 09:37:12;;;;;;;;;20.25;19.50;;;;;11.10;85.92;99687.47;5057013;28;45362;-75
2021/12/26 09:39:39;;;;;;;;;21.50;18.00;;;;;11.06;86.46;99682.22;5057044;28;45256;-75
2021/12/26 09:42:05;;;;;;;;;16.25;15.50;;;;;11.11;85.64;99693.59;5057452;28;45587;-75
2021/12/26 09:44:31;;;;;;;;;17.00;16.25;;;;;11.14;86.06;99694.44;5057106;28;45373;-76
2021/12/26 09:46:56;;;;;;;;;22.75;19.75;;;;;11.00;85.73;99662.09;5056853;28;45433;-76
2021/12/26 09:49:22;;;;;;;;;21.75;19.00;;;;;11.27;85.44;99697.81;5039101;28;45766;-76
2021/12/26 09:51:49;;;;;;;;;18.25;17.25;;;;;11.25;85.84;99696.06;5057056;28;45444;-76
2021/12/26 09:54:15;;;;;;;;;21.25;18.75;;;;;11.31;84.92;99702.16;5056965;28;46997;-75
2021/12/26 09:56:41;;;;;;;;;21.25;18.00;;;;;11.26;85.01;99693.44;5056686;28;45443;-75
2021/12/26 09:59:13;;;;;;;;;19.25;16.25;;;;;11.20;84.66;99679.44;5056829;28;45378;-75
2021/12/26 10:01:43;;;;;;;;;26.00;19.00;;;;;11.30;84.62;99697.75;5057260;28;45334;-76
2021/12/26 10:04:18;;;;;;;;;16.25;16.25;;;;;11.32;85.02;99705.66;5056876;28;46520;-75
2021/12/26 10:06:45;;;;;;;;;14.25;14.00;;;;;11.29;84.77;99703.06;5057694;28;45434;-76
2021/12/26 10:09:11;;;;;;;;;19.25;17.00;;;;;11.32;85.71;99705.66;5042386;28;45401;-75
2021/12/26 10:11:38;;;;;;;;;17.00;17.00;;;;;11.34;84.95;99707.38;5060405;28;45268;-75
2021/12/26 10:14:10;;;;;;;;;22.25;17.00;;;;;11.26;84.41;99690.81;5060276;28;46658;-75
2021/12/26 10:16:38;;;;;;;;;16.75;16.50;;;;;11.33;85.45;99699.47;5060428;28;45314;-75
2021/12/26 10:19:05;;;;;;;;;20.25;17.25;;;;;11.19;85.30;99672.44;5060082;28;45192;-75
2021/12/26 10:21:51;;;;;;;;;13.75;13.75;;;;;11.36;85.30;99695.06;5060254;28;45488;-74
2021/12/26 10:24:21;;;;;;;;;15.00;15.00;;;;;11.39;85.04;99697.66;5060223;28;46562;-75
2021/12/26 10:27:00;;;;;;;;;22.25;16.50;;;;;11.41;84.19;99681.81;5060150;28;45445;-76
2021/12/26 10:29:37;;;;;;;;;15.25;15.25;;;;;11.41;84.67;99689.72;5060265;28;45304;-76
2021/12/26 10:32:13;;;;;;;;;14.00;12.50;;;;;11.44;84.83;99679.13;5059941;28;45329;-75
2021/12/26 10:34:47;;;;;;;;;20.00;14.75;;;;;11.36;85.43;99666.06;5060122;28;47175;-75
2021/12/26 10:37:29;;;;;;;;;18.50;16.50;;;;;11.40;84.35;99680.06;5060092;28;45433;-74
2021/12/26 10:40:00;;;;;;;;;15.25;15.00;;;;;11.34;84.79;99667.81;5059762;28;45216;-74
2021/12/26 10:42:29;;;;;;;;;17.50;17.00;;;;;11.23;85.15;99653.03;5060173;28;45351;-75
2021/12/26 10:44:58;;;;;;;;;14.00;14.00;;;;;11.36;85.14;99662.56;5059995;28;46385;-74
2021/12/26 10:47:26;;;;;;;;;16.00;16.00;;;;;11.33;85.04;99654.66;5059438;28;45357;-75
2021/12/26 10:49:53;;;;;;;;;16.75;15.75;;;;;11.34;85.25;99662.53;5059799;28;45379;-75
2021/12/26 10:52:48;;;;;;;;;23.00;20.50;;;;;11.31;84.76;99652.06;5059882;28;45212;-75
2021/12/26 10:55:17;;;;;;;;;15.75;14.00;;;;;11.46;84.46;99666.81;5059850;28;47430;-75
2021/12/26 10:57:45;;;;;;;;;15.25;13.00;;;;;11.39;84.91;99655.47;5059764;28;45453;-75
2021/12/26 11:00:27;;;;;;;;;18.50;15.50;;;;;11.43;85.87;99662.44;5059726;28;45314;-75
2021/12/26 11:02:59;;;;;;;;;18.50;17.50;;;;;11.36;85.78;99649.38;5060062;28;45363;-74
2021/12/26 11:05:31;;;;;;;;;18.25;17.00;;;;;11.41;86.27;99656.31;5059423;28;45366;-74
2021/12/26 11:08:02;;;;;;;;;17.50;17.50;;;;;11.46;85.13;99669.44;5059382;28;45353;-74
2021/12/26 11:10:31;;;;;;;;;17.00;17.00;;;;;11.42;85.46;99668.59;5059814;28;45360;-74
2021/12/26 11:13:00;;;;;;;;;15.00;13.00;;;;;11.29;86.49;99651.22;5059873;28;45351;-75
2021/12/26 11:15:32;;;;;;;;;20.50;14.00;;;;;11.39;86.76;99668.66;5059361;28;46478;-75
2021/12/26 11:18:12;;;;;;;;;17.00;14.50;;;;;11.41;86.43;99661.59;5058621;28;45406;-77
2021/12/26 11:20:40;;;;;;;;;16.25;16.00;;;;;11.35;86.66;99661.69;5059839;28;45470;-76
2021/12/26 11:23:12;;;;;;;;;15.00;13.50;;;;;11.35;87.61;99666.06;5059768;28;45334;-75